Time;durP1;ratioP1;P1;durP2;ratioP2;P2;SDS_P1;SDS_P2;PMS_P1;PMS_P2;Temp;Humidity;BMP_temperature;BMP_pressure;BME280_temperature;BME280_humidity;BME280_pressure;Samples;Min_cycle;Max_cycle;Signal;HPM_P1;HPM_P2
2022/10/07 00:00:52;;;;;;;9.57;8.57;;;;;;;13.03;88.16;99560.44;5025171;28;20271;-69
2022/10/07 00:03:19;;;;;;;10.27;8.98;;;;;;;12.96;88.16;99559.78;5025397;28;20033;-70
2022/10/07 00:05:45;;;;;;;12.60;8.82;;;;;;;13.07;88.38;99569.84;5025354;28;20033;-70
2022/10/07 00:08:11;;;;;;;11.07;8.45;;;;;;;12.94;88.43;99557.25;5025140;28;20029;-69
2022/10/07 00:10:39;;;;;;;9.88;8.20;;;;;;;12.88;88.15;99557.47;5020690;28;20254;-68
2022/10/07 00:13:05;;;;;;;10.82;8.43;;;;;;;12.98;88.67;99568.38;5019594;28;20117;-69
2022/10/07 00:15:31;;;;;;;9.57;8.35;;;;;;;13.00;88.28;99561.38;5024849;28;20057;-68
2022/10/07 00:17:56;;;;;;;9.45;7.90;;;;;;;13.07;88.36;99573.28;5024619;28;20445;-67
2022/10/07 00:20:22;;;;;;;9.48;8.10;;;;;;;13.10;88.43;99572.34;5025025;28;20099;-68
2022/10/07 00:22:47;;;;;;;11.60;7.93;;;;;;;13.03;87.77;99568.25;5024486;28;20076;-68
2022/10/07 00:25:13;;;;;;;8.50;7.68;;;;;;;13.03;88.19;99571.69;5024823;28;20286;-67
2022/10/07 00:27:39;;;;;;;10.50;8.52;;;;;;;13.01;87.28;99572.63;5024716;28;20034;-67
2022/10/07 00:30:05;;;;;;;8.77;7.75;;;;;;;13.00;88.09;99578.72;5024885;28;20041;-67
2022/10/07 00:32:30;;;;;;;9.07;7.30;;;;;;;12.97;88.19;99584.03;5025234;28;20072;-68
2022/10/07 00:34:56;;;;;;;8.02;7.22;;;;;;;13.05;87.56;99589.81;5022921;28;20325;-68
2022/10/07 00:37:22;;;;;;;7.70;7.00;;;;;;;13.03;87.44;99587.28;5015856;28;20210;-68
2022/10/07 00:39:47;;;;;;;8.15;7.35;;;;;;;13.10;87.54;99593.13;5004726;28;20117;-68
2022/10/07 00:42:13;;;;;;;10.90;7.53;;;;;;;13.01;86.58;99589.09;5010577;28;20029;-66
2022/10/07 00:44:41;;;;;;;7.43;6.75;;;;;;;12.90;87.85;99586.84;5026572;28;20033;-67
2022/10/07 00:47:31;;;;;;;7.97;6.85;;;;;;;12.91;87.44;99580.75;5044148;28;20029;-68
2022/10/07 00:50:04;;;;;;;9.98;7.25;;;;;;;12.94;87.74;99601.44;5004868;28;20030;-68
2022/10/07 00:52:45;;;;;;;7.63;6.82;;;;;;;13.01;87.61;99596.03;5022112;28;20026;-68
2022/10/07 00:55:16;;;;;;;7.70;6.90;;;;;;;13.09;86.43;99601.81;5024363;28;20362;-68
2022/10/07 00:57:44;;;;;;;8.13;6.53;;;;;;;13.04;86.47;99598.50;5024388;28;20044;-67
2022/10/07 01:00:10;;;;;;;10.02;7.55;;;;;;;13.03;86.43;99599.44;5024337;28;20029;-70
2022/10/07 01:02:36;;;;;;;8.65;6.57;;;;;;;13.02;86.54;99608.13;5024221;28;20025;-68
2022/10/07 01:05:05;;;;;;;10.15;6.50;;;;;;;13.01;86.23;99602.09;5022021;28;20029;-68
2022/10/07 01:07:31;;;;;;;8.40;6.13;;;;;;;12.97;85.70;99604.81;5023658;28;20034;-69
2022/10/07 01:09:59;;;;;;;7.65;6.35;;;;;;;12.94;86.22;99611.00;5023580;28;20119;-69
2022/10/07 01:12:50;;;;;;;6.40;5.80;;;;;;;12.94;86.03;99617.03;5023764;28;20233;-69
2022/10/07 01:15:28;;;;;;;7.25;6.50;;;;;;;12.83;85.63;99607.88;5023413;28;20109;-68
2022/10/07 01:17:58;;;;;;;7.50;6.07;;;;;;;12.77;85.65;99609.78;5023531;28;20033;-68
2022/10/07 01:20:44;;;;;;;7.97;6.28;;;;;;;12.87;85.42;99623.31;5023702;28;20072;-68
2022/10/07 01:23:19;;;;;;;6.95;5.85;;;;;;;12.74;86.73;99625.47;5023325;28;20068;-68
2022/10/07 01:26:22;;;;;;;7.18;5.80;;;;;;;12.74;86.91;99633.25;5023585;28;20072;-68
2022/10/07 01:28:59;;;;;;;8.35;6.07;;;;;;;12.77;86.05;99630.56;4992928;28;20049;-67
2022/10/07 01:31:35;;;;;;;7.00;6.03;;;;;;;12.73;85.97;99622.91;5023055;28;20038;-67
2022/10/07 01:34:03;;;;;;;6.90;6.20;;;;;;;12.70;86.20;99620.41;5023404;28;20329;-68
2022/10/07 01:36:32;;;;;;;6.72;6.03;;;;;;;12.66;86.46;99635.25;5023463;28;20029;-68
2022/10/07 01:39:02;;;;;;;9.15;6.05;;;;;;;12.67;85.86;99638.69;5023323;28;20022;-68
2022/10/07 01:41:30;;;;;;;7.28;6.07;;;;;;;12.56;86.21;99624.28;5023238;28;20018;-67
2022/10/07 01:43:57;;;;;;;8.10;6.13;;;;;;;12.63;86.91;99630.16;5023428;28;20080;-68
2022/10/07 01:46:26;;;;;;;8.70;6.30;;;;;;;12.53;86.69;99620.94;5038172;28;20025;-68
2022/10/07 01:48:53;;;;;;;6.68;6.00;;;;;;;12.50;86.54;99639.19;5031419;28;20034;-68
2022/10/07 01:51:27;;;;;;;8.38;6.22;;;;;;;12.56;87.21;99652.84;5022861;28;20029;-68
2022/10/07 01:54:26;;;;;;;11.13;5.78;;;;;;;12.48;86.55;99652.22;5023386;28;20025;-68
2022/10/07 01:57:27;;;;;;;6.43;5.82;;;;;;;12.47;86.54;99654.88;5023647;28;20049;-68
2022/10/07 01:59:55;;;;;;;7.73;6.60;;;;;;;12.50;86.94;99658.25;5013109;28;20045;-67
2022/10/07 02:02:38;;;;;;;8.50;5.78;;;;;;;12.46;86.91;99661.81;5023176;28;20523;-67
2022/10/07 02:05:04;;;;;;;9.20;5.97;;;;;;;12.44;86.15;99668.78;5003774;28;20084;-67
2022/10/07 02:07:51;;;;;;;8.27;6.28;;;;;;;12.40;87.12;99662.84;5020289;28;20029;-66
2022/10/07 02:10:16;;;;;;;6.13;5.20;;;;;;;12.49;86.90;99664.31;5023374;28;20085;-67
2022/10/07 02:12:53;;;;;;;9.40;5.90;;;;;;;12.40;86.13;99662.00;5023005;28;20211;-67
2022/10/07 02:15:55;;;;;;;6.22;5.53;;;;;;;12.43;87.28;99673.16;5022739;28;20053;-68
2022/10/07 02:18:21;;;;;;;6.07;5.47;;;;;;;12.43;86.57;99667.94;5023441;28;20057;-68
2022/10/07 02:20:50;;;;;;;6.05;5.45;;;;;;;12.40;86.67;99662.00;5022780;28;20324;-67
2022/10/07 02:23:20;;;;;;;6.28;5.45;;;;;;;12.38;86.55;99667.22;5023196;28;20037;-68
2022/10/07 02:25:48;;;;;;;7.20;5.35;;;;;;;12.45;86.35;99675.69;5022960;28;20025;-67
2022/10/07 02:28:18;;;;;;;7.50;5.80;;;;;;;12.40;86.88;99685.38;5023118;28;20033;-67
2022/10/07 02:30:47;;;;;;;7.25;5.57;;;;;;;12.33;87.15;99673.47;5023181;28;20034;-67
2022/10/07 02:33:13;;;;;;;7.90;6.07;;;;;;;12.44;86.68;99679.19;5022803;28;20088;-68
2022/10/07 02:35:56;;;;;;;8.15;6.20;;;;;;;12.33;87.50;99683.88;5022955;28;20096;-67
2022/10/07 02:38:24;;;;;;;6.60;5.88;;;;;;;12.37;87.20;99680.25;5023170;28;20033;-68
2022/10/07 02:41:12;;;;;;;6.88;5.93;;;;;;;12.42;86.99;99691.38;5022777;28;20037;-67
2022/10/07 02:43:55;;;;;;;6.45;5.55;;;;;;;12.30;87.38;99684.81;5022092;28;20030;-68
2022/10/07 02:46:34;;;;;;;7.22;5.50;;;;;;;12.30;88.19;99679.59;5038190;28;20637;-68
2022/10/07 02:49:04;;;;;;;7.30;5.82;;;;;;;12.38;86.99;99694.94;5030199;28;20026;-70
2022/10/07 02:51:42;;;;;;;6.57;5.78;;;;;;;12.31;86.59;99685.63;5023059;28;20026;-69
2022/10/07 02:54:07;;;;;;;8.75;6.07;;;;;;;12.38;86.69;99694.94;5022811;28;20038;-69
2022/10/07 02:56:36;;;;;;;11.80;6.05;;;;;;;12.34;87.85;99698.53;5023070;28;20026;-69
2022/10/07 02:59:07;;;;;;;6.05;5.43;;;;;;;12.23;87.15;99686.72;5022716;28;20098;-69
2022/10/07 03:01:39;;;;;;;7.30;6.20;;;;;;;12.30;86.75;99673.53;5022895;28;20333;-69
2022/10/07 03:04:06;;;;;;;8.85;5.85;;;;;;;12.29;86.65;99706.47;5022479;28;20044;-69
2022/10/07 03:06:34;;;;;;;8.10;6.45;;;;;;;12.19;86.89;99692.88;5022819;28;20330;-69
2022/10/07 03:09:01;;;;;;;8.35;5.70;;;;;;;12.24;87.31;99703.13;5022742;28;20033;-67
2022/10/07 03:11:27;;;;;;;8.57;5.95;;;;;;;12.20;87.88;99707.56;5022501;28;20029;-67
2022/10/07 03:13:53;;;;;;;7.90;5.00;;;;;;;12.06;87.18;99678.56;5022517;28;20037;-67
2022/10/07 03:16:18;;;;;;;7.53;5.32;;;;;;;12.13;86.65;99710.34;5022522;28;20308;-67
2022/10/07 03:18:44;;;;;;;6.10;5.50;;;;;;;12.13;87.42;99703.44;5022631;28;20038;-67
2022/10/07 03:21:09;;;;;;;6.00;5.13;;;;;;;12.12;87.25;99700.91;5022354;28;20053;-68
2022/10/07 03:23:35;;;;;;;6.68;5.55;;;;;;;12.11;86.60;99710.41;5022617;28;20317;-68
2022/10/07 03:26:01;;;;;;;6.05;5.38;;;;;;;12.07;87.54;99714.84;5021347;28;20026;-68
2022/10/07 03:28:28;;;;;;;7.32;5.68;;;;;;;11.92;87.85;99689.25;5022956;28;20033;-67
2022/10/07 03:31:06;;;;;;;7.88;5.70;;;;;;;12.08;87.42;99716.56;5025949;28;20261;-67
2022/10/07 03:33:33;;;;;;;8.23;5.85;;;;;;;11.95;87.75;99717.75;5025505;28;20036;-68
2022/10/07 03:35:59;;;;;;;6.80;5.00;;;;;;;11.96;87.06;99729.00;5021281;28;20080;-67
2022/10/07 03:38:25;;;;;;;6.07;4.68;;;;;;;11.92;86.95;99718.66;5006287;28;20030;-67
2022/10/07 03:40:50;;;;;;;10.15;7.57;;;;;;;11.90;86.52;99730.00;5024514;28;20037;-67
2022/10/07 03:43:17;;;;;;;7.20;4.40;;;;;;;11.97;86.08;99741.06;5025671;28;20030;-69
2022/10/07 03:45:49;;;;;;;5.13;4.60;;;;;;;11.96;87.13;99742.84;5035184;28;20025;-69
2022/10/07 03:48:14;;;;;;;6.88;4.82;;;;;;;11.92;85.79;99734.22;5039718;28;20045;-70
2022/10/07 03:50:40;;;;;;;5.70;4.25;;;;;;;11.96;86.76;99749.78;5025709;28;20030;-69
2022/10/07 03:53:06;;;;;;;9.07;5.45;;;;;;;11.96;85.45;99739.41;5025440;28;20037;-68
2022/10/07 03:55:33;;;;;;;7.90;4.80;;;;;;;11.98;85.71;99732.41;5025649;28;20187;-69
2022/10/07 03:57:58;;;;;;;6.25;4.40;;;;;;;11.98;86.57;99737.59;5024392;28;20033;-68
2022/10/07 04:00:25;;;;;;;6.00;4.18;;;;;;;11.94;85.72;99742.00;5025131;28;20029;-67
2022/10/07 04:02:51;;;;;;;5.65;4.45;;;;;;;11.99;85.69;99736.72;5024954;28;20034;-66
2022/10/07 04:05:19;;;;;;;13.23;4.80;;;;;;;12.01;85.89;99738.34;5023577;28;20076;-66
2022/10/07 04:07:47;;;;;;;7.15;4.70;;;;;;;12.05;85.56;99745.16;5025180;28;20053;-67
2022/10/07 04:10:15;;;;;;;5.85;4.30;;;;;;;11.95;86.25;99733.34;5025352;28;20326;-67
2022/10/07 04:12:42;;;;;;;5.43;4.72;;;;;;;11.98;86.57;99753.16;5025128;28;20026;-68
2022/10/07 04:15:12;;;;;;;6.18;4.53;;;;;;;11.96;85.63;99748.03;5024800;28;20040;-67
2022/10/07 04:17:41;;;;;;;7.18;4.80;;;;;;;11.97;86.64;99752.34;5025252;28;20038;-66
2022/10/07 04:20:08;;;;;;;8.00;4.80;;;;;;;12.00;85.91;99761.75;5023730;28;20241;-67
2022/10/07 04:22:35;;;;;;;4.93;4.38;;;;;;;11.98;85.88;99768.75;5024869;28;20077;-67
2022/10/07 04:27:53;;;;;;;8.68;4.88;;;;;;;11.94;85.89;99775.75;5019793;28;20068;-67
2022/10/07 04:30:20;;;;;;;8.60;4.82;;;;;;;11.99;85.72;99776.50;5010957;28;20049;-66
2022/10/07 04:32:49;;;;;;;7.32;5.30;;;;;;;12.01;85.44;99781.63;5025141;28;20054;-67
2022/10/07 04:35:16;;;;;;;6.45;4.53;;;;;;;12.03;86.25;99780.72;5024805;28;20122;-66
2022/10/07 04:37:42;;;;;;;5.70;4.45;;;;;;;12.01;85.28;99785.06;5024405;28;20029;-66
2022/10/07 04:40:09;;;;;;;6.72;4.38;;;;;;;12.05;85.65;99786.69;5023575;28;20029;-66
2022/10/07 04:45:20;;;;;;;6.30;3.90;;;;;;;12.08;84.73;99809.13;5016238;28;20336;-66
2022/10/07 04:47:45;;;;;;;5.57;3.90;;;;;;;11.97;84.19;99790.38;5024380;28;20022;-66
2022/10/07 04:50:12;;;;;;;8.13;3.97;;;;;;;12.04;84.07;99802.31;5024398;28;20086;-66
2022/10/07 04:52:43;;;;;;;5.72;3.92;;;;;;;12.02;83.93;99811.91;5024394;28;20210;-66
2022/10/07 04:55:13;;;;;;;7.03;4.20;;;;;;;12.02;84.07;99799.75;5021100;28;20061;-67
2022/10/07 04:57:39;;;;;;;3.88;3.45;;;;;;;12.13;83.91;99803.81;5016076;28;20022;-66
2022/10/07 05:00:08;;;;;;;5.93;3.55;;;;;;;12.08;83.61;99802.22;5020449;28;20033;-66
2022/10/07 05:02:34;;;;;;;4.97;3.38;;;;;;;12.14;83.27;99810.72;5008937;28;20026;-66
2022/10/07 05:04:59;;;;;;;5.60;3.53;;;;;;;12.19;82.63;99812.31;5023480;28;20026;-66
2022/10/07 05:07:25;;;;;;;5.15;3.70;;;;;;;12.18;83.01;99800.22;5023839;28;20033;-67
2022/10/07 05:09:51;;;;;;;4.88;3.30;;;;;;;12.26;82.02;99811.25;5023610;28;20220;-69
2022/10/07 05:12:18;;;;;;;6.55;3.92;;;;;;;12.38;82.87;99817.03;5024396;28;20056;-67
2022/10/07 05:14:44;;;;;;;4.38;3.58;;;;;;;12.47;82.32;99811.59;5023059;28;20073;-68
2022/10/07 05:17:10;;;;;;;7.30;3.22;;;;;;;12.50;81.71;99824.50;5022275;28;20058;-67
2022/10/07 05:19:36;;;;;;;7.15;3.33;;;;;;;12.58;80.66;99824.28;5023975;28;20030;-67
2022/10/07 05:22:02;;;;;;;4.60;2.78;;;;;;;12.55;80.32;99835.59;5023848;28;20360;-67
2022/10/07 05:24:28;;;;;;;4.68;3.58;;;;;;;12.56;80.01;99839.91;5023649;28;20030;-67
2022/10/07 05:26:54;;;;;;;5.85;3.08;;;;;;;12.53;80.04;99837.41;5023546;28;20041;-67
2022/10/07 05:29:20;;;;;;;3.75;3.10;;;;;;;12.61;79.88;99847.56;5022282;28;20225;-67
2022/10/07 05:31:47;;;;;;;6.20;3.20;;;;;;;12.65;80.90;99841.41;5020975;28;20039;-67
2022/10/07 05:34:14;;;;;;;7.70;2.95;;;;;;;12.71;79.99;99848.16;5022738;28;20033;-67
2022/10/07 05:36:41;;;;;;;4.30;3.03;;;;;;;12.78;79.42;99849.69;5023194;28;20178;-66
2022/10/07 05:39:07;;;;;;;11.60;3.17;;;;;;;12.73;79.27;99854.19;5023459;28;20046;-67
2022/10/07 05:41:33;;;;;;;4.85;3.08;;;;;;;12.57;79.12;99851.16;5024009;28;20068;-66
2022/10/07 05:44:00;;;;;;;7.57;3.22;;;;;;;12.69;80.21;99857.78;5023297;28;20041;-67
2022/10/07 05:46:25;;;;;;;7.63;3.97;;;;;;;12.81;80.89;99862.59;5037764;28;20100;-67
2022/10/07 05:48:52;;;;;;;7.45;3.22;;;;;;;12.87;79.45;99862.47;5033816;28;20137;-67
2022/10/07 05:51:22;;;;;;;4.75;3.40;;;;;;;12.85;79.14;99861.63;5022630;28;20033;-67
2022/10/07 05:53:48;;;;;;;5.93;2.78;;;;;;;12.71;78.31;99861.16;5023001;28;20030;-67
2022/10/07 05:56:16;;;;;;;7.63;3.63;;;;;;;12.77;78.25;99874.00;5023566;28;20030;-67
2022/10/07 05:58:43;;;;;;;8.27;3.28;;;;;;;12.80;78.45;99866.13;5021228;28;20025;-67
2022/10/07 06:01:15;;;;;;;5.35;3.30;;;;;;;12.82;78.73;99887.72;5016409;28;20070;-67
2022/10/07 06:03:42;;;;;;;5.93;3.58;;;;;;;12.82;77.85;99879.06;5014239;28;20047;-67
2022/10/07 06:06:08;;;;;;;6.57;4.30;;;;;;;12.85;78.61;99869.44;5017699;28;20114;-67
2022/10/07 06:08:34;;;;;;;7.60;3.63;;;;;;;12.91;79.01;99879.69;5016241;28;20065;-66
2022/10/07 06:13:48;;;;;;;8.05;3.40;;;;;;;12.94;78.97;99870.94;5023226;28;20113;-67
2022/10/07 06:16:13;;;;;;;3.58;3.17;;;;;;;13.03;78.39;99881.06;5023111;28;20037;-67
2022/10/07 06:18:39;;;;;;;7.00;3.53;;;;;;;13.11;78.30;99893.84;5022004;28;20022;-67
2022/10/07 06:21:05;;;;;;;8.23;3.10;;;;;;;13.01;78.48;99887.19;5022700;28;20033;-66
2022/10/07 06:23:32;;;;;;;9.15;3.65;;;;;;;13.06;78.83;99891.38;5022512;28;20049;-66
2022/10/07 06:26:00;;;;;;;9.07;3.45;;;;;;;13.12;79.16;99877.34;5022581;28;20050;-66
2022/10/07 06:28:33;;;;;;;10.73;3.60;;;;;;;13.12;78.13;99879.94;5023150;28;20052;-66
2022/10/07 06:31:04;;;;;;;5.60;3.10;;;;;;;13.22;78.09;99896.16;5022204;28;20054;-66
2022/10/07 06:33:30;;;;;;;7.97;2.90;;;;;;;13.34;77.21;99911.41;5021685;28;20133;-67
2022/10/07 06:35:55;;;;;;;9.48;2.97;;;;;;;13.12;77.41;99919.81;5022612;28;20097;-66
2022/10/07 06:38:22;;;;;;;9.18;3.17;;;;;;;13.21;77.05;99923.91;5023043;28;20026;-67
2022/10/07 06:40:57;;;;;;;9.90;3.20;;;;;;;13.31;77.30;99927.09;5022965;28;20302;-67
2022/10/07 06:43:30;;;;;;;7.90;3.15;;;;;;;13.26;78.31;99935.00;5022760;28;20021;-67
2022/10/07 06:46:01;;;;;;;7.45;2.90;;;;;;;13.23;78.15;99937.72;5032150;28;20029;-67
2022/10/07 06:48:28;;;;;;;4.23;2.70;;;;;;;13.27;78.63;99944.53;5036984;28;20022;-67
2022/10/07 06:50:57;;;;;;;6.85;3.00;;;;;;;13.24;77.42;99938.56;5022264;28;20408;-66
2022/10/07 06:53:23;;;;;;;4.30;2.53;;;;;;;13.16;76.43;99941.38;5022999;28;20025;-67
2022/10/07 06:55:50;;;;;;;7.05;2.40;;;;;;;13.15;77.00;99946.63;5020877;28;20084;-66
2022/10/07 06:58:28;;;;;;;7.45;2.35;;;;;;;13.26;76.18;99955.81;5018071;28;20068;-66
2022/10/07 07:00:55;;;;;;;8.05;2.28;;;;;;;13.28;75.89;99953.19;5012063;28;20045;-67
2022/10/07 07:03:21;;;;;;;5.93;2.60;;;;;;;13.38;75.32;99959.00;5025069;28;20256;-67
2022/10/07 07:05:47;;;;;;;6.60;2.53;;;;;;;13.43;75.52;99954.53;5025855;28;20305;-67
2022/10/07 07:08:16;;;;;;;7.07;3.67;;;;;;;13.66;74.98;99968.63;5026414;28;20030;-68
2022/10/07 07:10:43;;;;;;;9.23;3.03;;;;;;;13.53;74.41;99963.78;5025984;28;20026;-66
2022/10/07 07:13:10;;;;;;;9.82;2.47;;;;;;;13.59;73.96;99967.94;5020825;28;20034;-68
2022/10/07 07:15:36;;;;;;;6.13;2.70;;;;;;;13.49;73.67;99982.97;5019358;28;20021;-67
2022/10/07 07:18:05;;;;;;;8.13;2.70;;;;;;;13.54;73.89;99981.09;5017343;28;20025;-68
2022/10/07 07:20:36;;;;;;;8.32;3.30;;;;;;;13.27;74.23;99975.75;5019538;28;20097;-68
2022/10/07 07:23:06;;;;;;;8.75;2.55;;;;;;;13.35;74.33;99992.91;5020391;28;20041;-67
2022/10/07 07:25:37;;;;;;;8.27;2.15;;;;;;;13.13;72.69;99980.47;5023681;28;20019;-67
2022/10/07 07:28:05;;;;;;;10.35;2.30;;;;;;;13.21;73.26;99994.13;5017503;28;20022;-67
2022/10/07 07:30:31;;;;;;;4.38;2.15;;;;;;;13.09;73.65;99997.06;5019852;28;20085;-68
2022/10/07 07:32:57;;;;;;;8.95;2.38;;;;;;;13.21;72.59;99998.47;5015748;28;20042;-67
2022/10/07 07:35:25;;;;;;;5.60;2.20;;;;;;;13.19;72.48;99982.91;5020298;28;20324;-67
2022/10/07 07:37:51;;;;;;;6.53;2.55;;;;;;;13.32;73.06;99995.56;5016948;28;20314;-67
2022/10/07 07:40:18;;;;;;;7.60;2.17;;;;;;;13.32;71.85;99996.41;5017924;28;20306;-67
2022/10/07 07:42:47;;;;;;;7.18;2.30;;;;;;;13.11;72.57;99984.84;5017625;28;20014;-67
2022/10/07 07:45:14;;;;;;;5.68;1.90;;;;;;;13.24;71.58;99995.78;5019717;28;20052;-66
2022/10/07 07:47:39;;;;;;;4.40;1.88;;;;;;;13.29;72.54;99997.34;5012999;28;20350;-66
2022/10/07 07:50:07;;;;;;;7.63;2.13;;;;;;;13.34;71.67;99998.97;5016483;28;20060;-66
2022/10/07 07:52:33;;;;;;;7.80;2.00;;;;;;;13.28;71.38;99992.19;5018609;28;20017;-68
2022/10/07 07:55:01;;;;;;;4.85;1.95;;;;;;;13.40;72.44;99994.50;5023283;28;20025;-66
2022/10/07 07:57:29;;;;;;;6.90;2.45;;;;;;;13.48;72.19;99985.63;5018830;28;20022;-67
2022/10/07 07:59:55;;;;;;;5.10;1.95;;;;;;;13.48;71.53;99973.44;5015490;28;20021;-67
2022/10/07 08:02:22;;;;;;;3.60;1.90;;;;;;;13.73;70.60;99985.78;5017248;28;20238;-67
2022/10/07 08:04:48;;;;;;;5.55;1.92;;;;;;;13.79;70.44;99996.00;5018015;28;20026;-67
2022/10/07 08:07:14;;;;;;;8.90;2.10;;;;;;;13.97;70.75;99998.03;5018888;28;20044;-67
2022/10/07 08:09:40;;;;;;;6.00;2.42;;;;;;;14.18;70.52;100007.84;5018307;28;20057;-69
2022/10/07 08:12:06;;;;;;;7.00;2.35;;;;;;;14.04;69.54;100010.84;5016824;28;20025;-67
2022/10/07 08:14:32;;;;;;;7.50;2.10;;;;;;;14.06;69.64;100014.28;5014791;28;20034;-67
2022/10/07 08:16:58;;;;;;;6.05;2.28;;;;;;;14.05;69.65;99989.13;5023593;28;20026;-67
2022/10/07 08:19:25;;;;;;;6.63;2.10;;;;;;;14.20;69.69;100006.91;5025075;28;20049;-67
2022/10/07 08:21:52;;;;;;;5.32;2.17;;;;;;;14.00;68.39;100010.13;5024923;28;20081;-66
2022/10/07 08:24:18;;;;;;;5.88;2.38;;;;;;;14.07;70.00;100022.06;5024749;28;20128;-67
2022/10/07 08:26:44;;;;;;;5.70;2.28;;;;;;;14.01;70.30;100017.03;5025078;28;20085;-66
2022/10/07 08:29:10;;;;;;;6.63;2.38;;;;;;;14.02;69.42;100028.31;5023523;28;20045;-67
2022/10/07 08:31:36;;;;;;;10.75;2.58;;;;;;;14.14;69.20;100027.94;5026467;28;20049;-67
2022/10/07 08:34:03;;;;;;;5.72;2.17;;;;;;;14.11;68.61;100026.28;5023267;28;20068;-67
2022/10/07 08:36:31;;;;;;;10.18;2.20;;;;;;;13.84;68.24;100022.75;5024520;28;20026;-66
2022/10/07 08:38:58;;;;;;;6.85;2.33;;;;;;;14.03;69.05;100032.63;5024736;28;20349;-68
2022/10/07 08:41:32;;;;;;;4.72;1.92;;;;;;;14.08;68.62;100028.09;5024542;28;20093;-67
2022/10/07 08:44:16;;;;;;;7.72;2.30;;;;;;;14.07;69.54;100034.22;5024310;28;20064;-67
2022/10/07 08:46:55;;;;;;;7.82;2.72;;;;;;;13.95;68.65;100025.00;5025794;28;20053;-68
2022/10/07 08:49:57;;;;;;;7.10;2.30;;;;;;;13.97;68.48;100044.91;5024189;28;20026;-67
2022/10/07 08:52:38;;;;;;;6.50;2.20;;;;;;;14.00;69.28;100045.75;5022595;28;20338;-67
2022/10/07 08:55:17;;;;;;;7.32;2.13;;;;;;;14.01;69.07;100040.47;5026617;28;20030;-68
2022/10/07 08:57:48;;;;;;;7.68;2.53;;;;;;;14.17;69.14;100045.22;5026398;28;20029;-68
2022/10/07 09:00:19;;;;;;;8.32;2.92;;;;;;;14.13;68.09;100047.06;5023880;28;20041;-68
2022/10/07 09:03:01;;;;;;;8.27;3.10;;;;;;;14.04;68.05;100042.13;5018429;28;20030;-67
2022/10/07 09:05:33;;;;;;;3.90;1.95;;;;;;;14.14;67.59;100036.59;5025491;28;20037;-68
2022/10/07 09:08:03;;;;;;;6.18;1.83;;;;;;;14.24;67.85;100039.78;5025821;28;20101;-68
2022/10/07 09:10:34;;;;;;;6.57;2.50;;;;;;;14.30;67.39;100050.00;5018442;28;20230;-68
2022/10/07 09:13:19;;;;;;;5.18;2.38;;;;;;;14.29;66.59;100052.66;5043112;28;20030;-67
2022/10/07 09:15:48;;;;;;;6.82;2.58;;;;;;;14.24;65.92;100055.41;5019650;28;20025;-67
2022/10/07 09:18:24;;;;;;;4.72;1.80;;;;;;;14.37;65.90;100061.09;5017475;28;20022;-67
2022/10/07 09:20:53;;;;;;;7.88;2.33;;;;;;;14.24;64.88;100037.16;5020506;28;20076;-67
2022/10/07 09:23:22;;;;;;;7.03;1.80;;;;;;;14.52;65.19;100064.94;5021861;28;20075;-67
2022/10/07 09:25:49;;;;;;;5.82;1.90;;;;;;;14.65;64.64;100055.88;5018509;28;20040;-68
2022/10/07 09:28:20;;;;;;;7.60;2.30;;;;;;;14.71;64.01;100059.19;5023175;28;20025;-67
2022/10/07 09:30:46;;;;;;;8.20;2.08;;;;;;;14.77;65.50;100059.84;5024909;28;20017;-68
2022/10/07 09:33:19;;;;;;;6.88;2.10;;;;;;;14.65;65.14;100053.28;5021696;28;20084;-67
2022/10/07 09:36:04;;;;;;;6.53;2.00;;;;;;;14.57;64.19;100037.00;5026519;28;20025;-66
2022/10/07 09:38:38;;;;;;;9.60;2.15;;;;;;;14.55;64.99;100048.38;5019018;28;20068;-68
2022/10/07 09:41:29;;;;;;;3.80;2.00;;;;;;;14.51;64.54;100058.06;5022276;28;20332;-68
2022/10/07 09:44:25;;;;;;;7.78;2.13;;;;;;;14.38;65.75;100054.09;5022791;28;20072;-67
2022/10/07 09:46:56;;;;;;;9.68;2.22;;;;;;;14.39;65.76;100054.06;5014070;28;20334;-67
2022/10/07 09:49:27;;;;;;;6.57;1.92;;;;;;;14.50;65.70;100051.13;5023169;28;20037;-67
2022/10/07 09:52:01;;;;;;;7.53;2.13;;;;;;;14.47;65.29;100051.22;5023363;28;20048;-67
2022/10/07 09:54:29;;;;;;;7.20;2.35;;;;;;;14.41;65.76;100051.41;5023679;28;20053;-67
2022/10/07 09:56:57;;;;;;;7.90;1.90;;;;;;;14.52;65.34;100054.53;5023608;28;20277;-68
2022/10/07 09:59:33;;;;;;;6.53;1.73;;;;;;;14.49;64.44;100054.63;5023623;28;20030;-67
2022/10/07 10:02:01;;;;;;;5.93;2.00;;;;;;;14.58;65.10;100056.09;5022881;28;20211;-66
2022/10/07 10:04:38;;;;;;;9.80;2.35;;;;;;;14.63;64.52;100034.22;5022725;28;20038;-68
2022/10/07 10:07:32;;;;;;;4.63;1.73;;;;;;;14.84;64.84;100050.06;5023243;28;20064;-67
2022/10/07 10:10:14;;;;;;;7.20;1.80;;;;;;;14.82;64.12;100051.88;5017833;28;20033;-67
2022/10/07 10:12:47;;;;;;;;;;;;;;;14.73;62.95;100046.97;5023820;28;20034;-67
2022/10/07 10:15:36;;;;;;;6.40;2.60;;;;;;;14.57;63.50;100042.22;5023828;28;19905;-67
2022/10/07 10:18:22;;;;;;;5.22;2.13;;;;;;;14.69;64.02;100051.41;5020574;28;20026;-68
2022/10/07 10:20:48;;;;;;;6.07;2.00;;;;;;;14.61;65.08;100048.19;5023020;28;20029;-68
2022/10/07 10:23:32;;;;;;;5.38;1.63;;;;;;;14.71;63.97;100059.19;5023261;28;20088;-67
2022/10/07 10:26:25;;;;;;;7.53;1.92;;;;;;;14.50;63.74;100054.56;5021674;28;20022;-67
2022/10/07 10:29:09;;;;;;;6.38;2.00;;;;;;;14.52;62.88;100051.91;5022678;28;20052;-67
2022/10/07 10:31:59;;;;;;;4.75;1.85;;;;;;;14.48;64.17;100051.19;5023025;28;20062;-68
2022/10/07 10:34:41;;;;;;;10.38;2.15;;;;;;;14.53;63.04;100032.78;5023072;28;20310;-67
2022/10/07 10:37:19;;;;;;;;;;;;;;;14.53;63.19;100043.22;5024507;28;20033;-68
2022/10/07 10:39:56;;;;;;;5.90;1.80;;;;;;;14.62;63.88;100053.38;5027206;28;19974;-67
2022/10/07 10:42:33;;;;;;;6.38;1.90;;;;;;;14.66;64.12;100052.38;5026842;28;20326;-67
2022/10/07 10:45:27;;;;;;;7.63;1.67;;;;;;;14.71;63.39;100056.56;5027001;28;20321;-68
2022/10/07 10:48:28;;;;;;;8.73;1.80;;;;;;;14.65;63.33;100058.50;5024047;28;20093;-67
2022/10/07 10:51:33;;;;;;;10.27;2.67;;;;;;;14.50;63.27;100056.34;4983083;28;20034;-67
2022/10/07 10:54:10;;;;;;;9.23;2.30;;;;;;;14.65;63.93;100052.41;5006955;28;20097;-68
2022/10/07 10:57:11;;;;;;;4.75;1.83;;;;;;;14.60;63.14;100057.75;5007224;28;20322;-67
2022/10/07 10:59:37;;;;;;;7.80;1.88;;;;;;;14.60;63.43;100057.75;5020045;28;20022;-67
2022/10/07 11:02:21;;;;;;;7.80;1.77;;;;;;;14.73;63.14;100060.00;5034247;28;20017;-67
2022/10/07 11:04:51;;;;;;;7.38;1.98;;;;;;;14.62;62.75;100049.91;5032231;28;20030;-68
2022/10/07 11:07:23;;;;;;;7.07;1.90;;;;;;;14.76;63.65;100054.69;5029263;28;20036;-68
2022/10/07 11:10:05;;;;;;;4.00;2.00;;;;;;;14.79;63.57;100059.78;5026786;28;20190;-69
2022/10/07 11:12:38;;;;;;;6.37;1.77;;;;;;;14.74;62.98;100040.84;5026628;28;20101;-67
2022/10/07 11:15:17;;;;;;;5.28;1.67;;;;;;;14.79;62.92;100058.06;5032933;28;20438;-67
2022/10/07 11:17:47;;;;;;;6.68;2.13;;;;;;;14.81;62.96;100058.00;5026679;28;20037;-67
2022/10/07 11:20:12;;;;;;;5.10;2.13;;;;;;;14.94;63.04;100064.50;5043978;28;20025;-67
2022/10/07 11:22:45;;;;;;;5.32;1.75;;;;;;;14.78;62.49;100056.34;5014272;28;20348;-66
2022/10/07 11:25:31;;;;;;;7.20;2.10;;;;;;;14.79;63.01;100070.22;5026611;28;20022;-67
2022/10/07 11:28:15;;;;;;;9.18;2.13;;;;;;;14.77;63.32;100074.66;5026055;28;20026;-67
2022/10/07 11:31:01;;;;;;;6.72;1.92;;;;;;;14.81;62.86;100084.91;5024787;28;20321;-69
2022/10/07 11:33:37;;;;;;;5.22;1.88;;;;;;;14.69;63.71;100058.38;5040268;28;20033;-66
2022/10/07 11:36:17;;;;;;;6.28;2.13;;;;;;;14.94;63.81;100084.53;5025796;28;20033;-67
2022/10/07 11:38:45;;;;;;;6.20;2.00;;;;;;;14.78;63.06;100092.84;5011960;28;20030;-67
2022/10/07 11:41:28;;;;;;;5.68;2.30;;;;;;;14.72;63.08;100071.31;5025518;28;20025;-67
2022/10/07 11:43:59;;;;;;;4.75;1.88;;;;;;;14.84;63.60;100086.59;5025720;28;20033;-67
2022/10/07 11:46:31;;;;;;;4.97;2.30;;;;;;;14.81;63.95;100091.91;5025854;28;20022;-67
2022/10/07 11:49:04;;;;;;;9.07;2.10;;;;;;;14.79;63.81;100083.25;5024660;28;20108;-67
2022/10/07 11:51:45;;;;;;;9.07;2.33;;;;;;;14.90;63.29;100093.34;5021291;28;20329;-68
2022/10/07 11:54:17;;;;;;;6.70;2.10;;;;;;;14.72;63.91;100084.34;5006794;28;20052;-67
2022/10/07 11:56:51;;;;;;;8.43;2.22;;;;;;;14.77;63.07;100101.56;5025853;28;20032;-68
2022/10/07 11:59:37;;;;;;;6.03;2.13;;;;;;;14.72;62.57;100092.19;5025574;28;20105;-68